• Join FlightAware (Why Join?)
  • Login
  • US Flag 
09:48PM EST


 

Airport Tracker/Info


-or-


 

Live Flight TrackerFlight Track Log ✈ N30637 ✈ 13-May-2014 ✈ KASH - KHFD

Flight Track Log - Related Links

Times and Time Zones

All times are in EDT time to prevent confusion due to time zone crossing. See the N30637 flight status page for this flight to view local times or setup timezone preferences in your user account.

Time Position Orientation Groundspeed Altitude Reporting Facility
EDT Latitude Longitude Course Direction KTS MPH feet Rate Location/Type
08:21AM 42.7667 -71.5000 217° Southwest 78 90 1,300  Level KA90
08:22AM 42.7500 -71.5167 216° Southwest 99 114 2,200 780 Climbing KA90
08:23AM 42.7333 -71.5500 236° Southwest 99 114 2,900 600 Climbing KA90
08:24AM 42.7000 -71.5667 200° South 100 115 3,500 540 Climbing KA90
08:25AM 42.6833 -71.5833 216° Southwest 101 116 4,100 480 Climbing KA90
08:26AM 42.6427 -71.6569 217° Southwest  Level FlightAware Approximate
08:26AM 42.6667 -71.6167 236° Southwest 103 119 4,500  Level KA90
08:27AM 42.6333 -71.6500 216° Southwest 115 132 4,500  Level KA90
08:28AM 42.6167 -71.6667 216° Southwest 114 131 4,500  Level KA90
08:29AM 42.6000 -71.7000 236° Southwest 111 128 4,500  Level KA90
08:30AM 42.5667 -71.7167 200° South 108 124 4,500  Level KA90
08:30AM 42.5525 -71.7422 233° Southwest 108 124 4,500  Level Boston Center
08:31AM 42.5419 -71.7531 217° Southwest 108 124 4,500  Level Boston Center
08:32AM 42.5175 -71.7794 219° Southwest 109 125 4,500  Level Boston Center
08:33AM 42.4953 -71.8067 222° Southwest 112 129 4,500  Level Boston Center
08:34AM 42.4703 -71.8356 220° Southwest 113 130 4,500  Level Boston Center
08:35AM 42.4433 -71.8642 218° Southwest 113 130 4,500  Level Boston Center
08:36AM 42.4214 -71.8883 219° Southwest 110 127 4,500  Level Boston Center
08:37AM 42.3967 -71.9175 221° Southwest 112 129 4,500  Level Boston Center
08:38AM 42.3747 -71.9419 219° Southwest 109 125 4,500  Level Boston Center
08:39AM 42.3492 -71.9717 221° Southwest 110 127 4,500  Level Boston Center
08:40AM 42.3278 -71.9950 219° Southwest 106 122 4,500  Level Boston Center
08:41AM 42.3022 -72.0236 220° Southwest 109 125 4,500  Level Boston Center
08:42AM 42.2783 -72.0503 220° Southwest 106 122 4,500  Level Boston Center
08:43AM 42.2567 -72.0744 220° Southwest 105 121 4,500  Level Boston Center
08:44AM 42.2319 -72.1008 218° Southwest 111 128 4,500  Level Boston Center
08:45AM 42.2097 -72.1278 222° Southwest 106 122 4,500  Level Boston Center
08:46AM 42.1878 -72.1519 219° Southwest 109 125 4,500  Level Boston Center
08:47AM 42.1622 -72.1806 220° Southwest 107 123 4,500  Level Boston Center
08:48AM 42.1408 -72.2047 220° Southwest 107 123 4,500  Level Boston Center
08:49AM 42.1164 -72.2308 218° Southwest 107 123 4,500  Level Boston Center
08:50AM 42.0944 -72.2550 219° Southwest 107 123 4,500  Level Boston Center
08:51AM 42.0689 -72.2831 219° Southwest 104 120 4,500 -60 Level Boston Center
08:52AM 42.0456 -72.3092 220° Southwest 106 122 4,400 -60 Descending Boston Center
08:53AM 42.0228 -72.3339 219° Southwest 107 123 4,400  Level Boston Center
08:54AM 41.9978 -72.3619 220° Southwest 107 123 4,400  Level Boston Center
08:55AM 41.9783 -72.3847 221° Southwest 110 127 4,500 60 Climbing Boston Center
08:55AM 41.9747 -72.3875 210° Southwest 107 123 4,500 -120 Level Boston Center
08:56AM 41.9522 -72.4133 220° Southwest 107 123 4,400 -60 Descending Boston Center
08:57AM 41.9297 -72.4378 219° Southwest 107 123 4,400 -120 Level Boston Center
08:58AM 41.9072 -72.4606 217° Southwest 118 136 4,200 -300 Descending Boston Center
08:58AM 41.9047 -72.4658 238° Southwest 115 132 4,100 -540 Descending Boston Center
08:59AM 41.8817 -72.4917 220° Southwest 125 144 3,700 -540 Descending Boston Center
08:59AM 41.8758 -72.4975 217° Southwest 122 140 3,600 -540 Descending Boston Center
09:00AM 41.8542 -72.5222 220° Southwest 131 151 3,200 -540 Descending Boston Center
09:00AM 41.8475 -72.5294 219° Southwest 129 148 3,100 -540 Descending Boston Center
09:01AM 41.8244 -72.5522 216° Southwest 134 154 2,700 -600 Descending Boston Center
09:01AM 41.8178 -72.5597 220° Southwest 131 151 2,500 -840 Descending Boston Center
09:02AM 41.7936 -72.5872 220° Southwest 140 161 1,900 -720 Descending Boston Center
09:02AM 41.7881 -72.5933 219° Southwest 135 155 1,800 -540 Descending Boston Center
09:03AM 41.7633 -72.6197 219° Southwest 134 154 1,400 -540 Descending Boston Center
09:03AM 41.7594 -72.6244 222° Southwest 135 155 1,300 -300 Descending Boston Center
09:04AM 41.7281 -72.6392 199° South 109 125 1,100 -180 Descending Boston Center
09:05AM 41.7161 -72.6519 219° Southwest 76 87 1,000 -300 Descending Boston Center
09:05AM 41.7203 -72.6522 357° North 87 100 800 -600 Descending Boston Center
09:06AM 41.7292 -72.6508 North 71 82 400 -600 Descending Boston Center
09:06AM 41.7369 -72.6483 13° North 82 94 200 -1,020 Descending Boston Center